sensor_id;sensor_type;location;lat;lon;timestamp;temperature;humidity
1429;DHT22;708;51.442;7.016;2022-09-09T00:01:59;16.90;99.90
1429;DHT22;708;51.442;7.016;2022-09-09T00:07:03;16.90;99.90
1429;DHT22;708;51.442;7.016;2022-09-09T00:09:44;16.90;99.90
1429;DHT22;708;51.442;7.016;2022-09-09T00:12:34;16.90;99.90
1429;DHT22;708;51.442;7.016;2022-09-09T00:15:05;16.90;99.90
1429;DHT22;708;51.442;7.016;2022-09-09T00:17:43;16.90;99.90
1429;DHT22;708;51.442;7.016;2022-09-09T00:23:54;17.00;99.90
1429;DHT22;708;51.442;7.016;2022-09-09T00:26:35;16.90;99.90
1429;DHT22;708;51.442;7.016;2022-09-09T00:29:12;16.90;99.90
1429;DHT22;708;51.442;7.016;2022-09-09T00:31:41;16.90;99.90
1429;DHT22;708;51.442;7.016;2022-09-09T00:34:25;16.90;99.90
1429;DHT22;708;51.442;7.016;2022-09-09T00:36:56;16.80;99.90
1429;DHT22;708;51.442;7.016;2022-09-09T00:39:34;16.80;99.90
1429;DHT22;708;51.442;7.016;2022-09-09T00:42:16;16.80;99.90
1429;DHT22;708;51.442;7.016;2022-09-09T00:44:56;16.70;99.90
1429;DHT22;708;51.442;7.016;2022-09-09T00:48:27;16.70;99.90
1429;DHT22;708;51.442;7.016;2022-09-09T00:54:35;16.70;99.90
1429;DHT22;708;51.442;7.016;2022-09-09T00:57:26;16.70;99.90
1429;DHT22;708;51.442;7.016;2022-09-09T01:00:17;16.70;99.90
1429;DHT22;708;51.442;7.016;2022-09-09T01:03:07;16.90;99.90
1429;DHT22;708;51.442;7.016;2022-09-09T01:05:57;16.90;99.90
1429;DHT22;708;51.442;7.016;2022-09-09T01:09:02;17.00;99.90
1429;DHT22;708;51.442;7.016;2022-09-09T01:11:38;17.00;99.90
1429;DHT22;708;51.442;7.016;2022-09-09T01:14:27;17.10;99.90
1429;DHT22;708;51.442;7.016;2022-09-09T01:16:59;17.10;99.90
1429;DHT22;708;51.442;7.016;2022-09-09T01:23:33;16.90;99.90
1429;DHT22;708;51.442;7.016;2022-09-09T01:26:24;16.90;99.90
1429;DHT22;708;51.442;7.016;2022-09-09T01:28:52;16.80;99.90
1429;DHT22;708;51.442;7.016;2022-09-09T01:31:23;16.80;99.90
1429;DHT22;708;51.442;7.016;2022-09-09T01:33:54;16.70;99.90
1429;DHT22;708;51.442;7.016;2022-09-09T01:36:37;16.70;99.90
1429;DHT22;708;51.442;7.016;2022-09-09T01:39:16;16.70;99.90
1429;DHT22;708;51.442;7.016;2022-09-09T01:41:47;16.80;99.90
1429;DHT22;708;51.442;7.016;2022-09-09T01:44:15;16.90;99.90
1429;DHT22;708;51.442;7.016;2022-09-09T01:46:46;17.00;99.90
1429;DHT22;708;51.442;7.016;2022-09-09T01:49:23;17.00;99.90
1429;DHT22;708;51.442;7.016;2022-09-09T01:51:53;17.00;99.90
1429;DHT22;708;51.442;7.016;2022-09-09T01:54:42;17.00;99.90
1429;DHT22;708;51.442;7.016;2022-09-09T01:57:15;17.10;99.90
1429;DHT22;708;51.442;7.016;2022-09-09T01:59:59;17.00;99.90
1429;DHT22;708;51.442;7.016;2022-09-09T02:02:42;16.90;99.90
1429;DHT22;708;51.442;7.016;2022-09-09T02:05:20;16.90;99.90
1429;DHT22;708;51.442;7.016;2022-09-09T02:07:59;16.80;99.90
1429;DHT22;708;51.442;7.016;2022-09-09T02:10:32;16.70;99.90
1429;DHT22;708;51.442;7.016;2022-09-09T02:13:08;16.70;99.90
1429;DHT22;708;51.442;7.016;2022-09-09T02:15:52;16.60;99.90
1429;DHT22;708;51.442;7.016;2022-09-09T02:18:26;16.60;99.90
1429;DHT22;708;51.442;7.016;2022-09-09T02:20:58;16.50;99.90
1429;DHT22;708;51.442;7.016;2022-09-09T02:23:34;16.50;99.90
1429;DHT22;708;51.442;7.016;2022-09-09T02:26:02;16.40;99.90
1429;DHT22;708;51.442;7.016;2022-09-09T02:28:32;16.50;99.90
1429;DHT22;708;51.442;7.016;2022-09-09T02:31:05;16.50;99.90
1429;DHT22;708;51.442;7.016;2022-09-09T02:33:36;16.60;99.90
1429;DHT22;708;51.442;7.016;2022-09-09T02:36:09;16.60;99.90
1429;DHT22;708;51.442;7.016;2022-09-09T02:38:45;16.70;99.90
1429;DHT22;708;51.442;7.016;2022-09-09T02:41:27;16.80;99.90
1429;DHT22;708;51.442;7.016;2022-09-09T02:44:10;16.80;99.90
1429;DHT22;708;51.442;7.016;2022-09-09T02:46:48;16.80;99.90
1429;DHT22;708;51.442;7.016;2022-09-09T02:49:25;16.90;99.90
1429;DHT22;708;51.442;7.016;2022-09-09T02:52:48;17.00;99.90
1429;DHT22;708;51.442;7.016;2022-09-09T02:55:24;17.10;99.90
1429;DHT22;708;51.442;7.016;2022-09-09T03:01:54;17.10;99.90
1429;DHT22;708;51.442;7.016;2022-09-09T03:04:21;17.20;99.90
1429;DHT22;708;51.442;7.016;2022-09-09T03:06:49;17.20;99.90
1429;DHT22;708;51.442;7.016;2022-09-09T03:09:23;17.20;99.90
1429;DHT22;708;51.442;7.016;2022-09-09T03:11:54;17.30;99.90
1429;DHT22;708;51.442;7.016;2022-09-09T03:14:21;17.30;99.90
1429;DHT22;708;51.442;7.016;2022-09-09T03:16:50;17.30;99.90
1429;DHT22;708;51.442;7.016;2022-09-09T03:19:21;17.30;99.90
1429;DHT22;708;51.442;7.016;2022-09-09T03:21:54;17.30;99.90
1429;DHT22;708;51.442;7.016;2022-09-09T03:24:21;17.30;99.90
1429;DHT22;708;51.442;7.016;2022-09-09T03:26:53;17.30;99.90
1429;DHT22;708;51.442;7.016;2022-09-09T03:29:21;17.30;99.90
1429;DHT22;708;51.442;7.016;2022-09-09T03:31:57;17.30;99.90
1429;DHT22;708;51.442;7.016;2022-09-09T03:41:27;17.10;99.90
1429;DHT22;708;51.442;7.016;2022-09-09T03:43:54;17.00;99.90
1429;DHT22;708;51.442;7.016;2022-09-09T03:46:33;17.00;99.90
1429;DHT22;708;51.442;7.016;2022-09-09T03:49:03;17.00;99.90
1429;DHT22;708;51.442;7.016;2022-09-09T03:51:32;17.10;99.90
1429;DHT22;708;51.442;7.016;2022-09-09T03:54:02;17.10;99.90
1429;DHT22;708;51.442;7.016;2022-09-09T03:56:30;17.10;99.90
1429;DHT22;708;51.442;7.016;2022-09-09T03:59:15;17.20;99.90
1429;DHT22;708;51.442;7.016;2022-09-09T04:02:10;17.20;99.90
1429;DHT22;708;51.442;7.016;2022-09-09T04:04:53;17.20;99.90
1429;DHT22;708;51.442;7.016;2022-09-09T04:07:21;17.20;99.90
1429;DHT22;708;51.442;7.016;2022-09-09T04:09:52;17.30;99.90
1429;DHT22;708;51.442;7.016;2022-09-09T04:12:20;17.20;99.90
1429;DHT22;708;51.442;7.016;2022-09-09T04:14:47;17.20;99.90
1429;DHT22;708;51.442;7.016;2022-09-09T04:17:17;17.20;99.90
1429;DHT22;708;51.442;7.016;2022-09-09T04:19:45;17.20;99.90
1429;DHT22;708;51.442;7.016;2022-09-09T04:22:13;17.10;99.90
1429;DHT22;708;51.442;7.016;2022-09-09T04:24:46;17.00;99.90
1429;DHT22;708;51.442;7.016;2022-09-09T04:27:12;17.00;99.90
1429;DHT22;708;51.442;7.016;2022-09-09T04:29:42;16.90;99.90
1429;DHT22;708;51.442;7.016;2022-09-09T04:32:09;16.90;99.90
1429;DHT22;708;51.442;7.016;2022-09-09T04:34:35;16.80;99.90
1429;DHT22;708;51.442;7.016;2022-09-09T04:37:02;16.80;99.90
1429;DHT22;708;51.442;7.016;2022-09-09T04:39:35;16.70;99.90
1429;DHT22;708;51.442;7.016;2022-09-09T04:42:33;16.70;99.90
1429;DHT22;708;51.442;7.016;2022-09-09T04:45:01;16.70;99.90
1429;DHT22;708;51.442;7.016;2022-09-09T04:47:28;16.70;99.90
1429;DHT22;708;51.442;7.016;2022-09-09T04:49:55;16.80;99.90
1429;DHT22;708;51.442;7.016;2022-09-09T04:52:26;16.90;99.90
1429;DHT22;708;51.442;7.016;2022-09-09T04:54:53;16.90;99.90
1429;DHT22;708;51.442;7.016;2022-09-09T04:57:25;17.00;99.90
1429;DHT22;708;51.442;7.016;2022-09-09T04:59:54;17.10;99.90
1429;DHT22;708;51.442;7.016;2022-09-09T05:02:21;17.10;99.90
1429;DHT22;708;51.442;7.016;2022-09-09T05:04:50;17.10;99.90
1429;DHT22;708;51.442;7.016;2022-09-09T05:07:17;17.20;99.90
1429;DHT22;708;51.442;7.016;2022-09-09T05:09:48;17.20;99.90
1429;DHT22;708;51.442;7.016;2022-09-09T05:12:17;17.30;99.90
1429;DHT22;708;51.442;7.016;2022-09-09T05:14:51;17.30;99.90
1429;DHT22;708;51.442;7.016;2022-09-09T05:17:25;17.40;99.90
1429;DHT22;708;51.442;7.016;2022-09-09T05:19:55;17.40;99.90
1429;DHT22;708;51.442;7.016;2022-09-09T05:22:22;17.40;99.90
1429;DHT22;708;51.442;7.016;2022-09-09T05:24:49;17.50;99.90
1429;DHT22;708;51.442;7.016;2022-09-09T05:27:17;17.50;99.90
1429;DHT22;708;51.442;7.016;2022-09-09T05:29:46;17.50;99.90
1429;DHT22;708;51.442;7.016;2022-09-09T05:35:34;17.70;99.90
1429;DHT22;708;51.442;7.016;2022-09-09T05:45:22;17.90;99.90
1429;DHT22;708;51.442;7.016;2022-09-09T05:48:06;18.00;99.90
1429;DHT22;708;51.442;7.016;2022-09-09T05:50:35;18.10;99.90
1429;DHT22;708;51.442;7.016;2022-09-09T05:53:05;18.20;99.90
1429;DHT22;708;51.442;7.016;2022-09-09T05:55:44;18.30;99.90
1429;DHT22;708;51.442;7.016;2022-09-09T06:02:05;18.40;99.90
1429;DHT22;708;51.442;7.016;2022-09-09T06:04:43;18.50;99.90
1429;DHT22;708;51.442;7.016;2022-09-09T06:07:23;18.50;99.90
1429;DHT22;708;51.442;7.016;2022-09-09T06:10:05;18.50;99.90
1429;DHT22;708;51.442;7.016;2022-09-09T06:12:40;18.60;99.90
1429;DHT22;708;51.442;7.016;2022-09-09T06:15:11;18.60;99.90
1429;DHT22;708;51.442;7.016;2022-09-09T06:17:40;18.80;99.90
1429;DHT22;708;51.442;7.016;2022-09-09T06:20:18;18.90;99.90
1429;DHT22;708;51.442;7.016;2022-09-09T06:22:47;19.00;99.90
1429;DHT22;708;51.442;7.016;2022-09-09T06:25:16;19.20;99.90
1429;DHT22;708;51.442;7.016;2022-09-09T06:27:48;19.30;99.90
1429;DHT22;708;51.442;7.016;2022-09-09T06:33:58;19.60;99.90
1429;DHT22;708;51.442;7.016;2022-09-09T06:36:28;19.80;99.90
1429;DHT22;708;51.442;7.016;2022-09-09T06:38:58;20.10;99.90
1429;DHT22;708;51.442;7.016;2022-09-09T06:41:26;20.20;99.90
1429;DHT22;708;51.442;7.016;2022-09-09T06:44:01;20.30;99.90
1429;DHT22;708;51.442;7.016;2022-09-09T06:46:29;20.30;99.90
1429;DHT22;708;51.442;7.016;2022-09-09T06:49:01;20.30;99.90
1429;DHT22;708;51.442;7.016;2022-09-09T06:51:32;20.30;99.90
1429;DHT22;708;51.442;7.016;2022-09-09T06:54:03;20.30;99.90
1429;DHT22;708;51.442;7.016;2022-09-09T06:56:37;20.30;99.90
1429;DHT22;708;51.442;7.016;2022-09-09T06:59:06;20.30;99.90
1429;DHT22;708;51.442;7.016;2022-09-09T07:01:36;20.30;99.90
1429;DHT22;708;51.442;7.016;2022-09-09T07:04:05;20.50;99.90
1429;DHT22;708;51.442;7.016;2022-09-09T07:06:35;21.00;99.90
1429;DHT22;708;51.442;7.016;2022-09-09T07:09:05;22.00;99.90
1429;DHT22;708;51.442;7.016;2022-09-09T07:11:37;23.50;99.90
1429;DHT22;708;51.442;7.016;2022-09-09T07:14:04;24.10;99.90
1429;DHT22;708;51.442;7.016;2022-09-09T07:16:31;24.20;99.90
1429;DHT22;708;51.442;7.016;2022-09-09T07:18:59;24.00;99.90
1429;DHT22;708;51.442;7.016;2022-09-09T07:21:34;23.60;99.90
1429;DHT22;708;51.442;7.016;2022-09-09T07:24:02;23.40;99.90
1429;DHT22;708;51.442;7.016;2022-09-09T07:26:34;23.10;99.90
1429;DHT22;708;51.442;7.016;2022-09-09T07:29:01;23.30;99.90
1429;DHT22;708;51.442;7.016;2022-09-09T07:31:30;23.70;99.90
1429;DHT22;708;51.442;7.016;2022-09-09T07:33:57;24.90;99.90
1429;DHT22;708;51.442;7.016;2022-09-09T07:36:38;26.30;99.90
1429;DHT22;708;51.442;7.016;2022-09-09T07:39:23;28.00;99.90
1429;DHT22;708;51.442;7.016;2022-09-09T07:41:57;29.70;97.90
1429;DHT22;708;51.442;7.016;2022-09-09T07:44:25;31.10;90.80
1429;DHT22;708;51.442;7.016;2022-09-09T07:46:53;32.00;85.10
1429;DHT22;708;51.442;7.016;2022-09-09T07:49:20;32.90;79.50
1429;DHT22;708;51.442;7.016;2022-09-09T07:51:47;34.00;74.10
1429;DHT22;708;51.442;7.016;2022-09-09T07:54:16;34.80;70.30
1429;DHT22;708;51.442;7.016;2022-09-09T07:56:45;35.30;65.20
1429;DHT22;708;51.442;7.016;2022-09-09T07:59:18;35.30;63.70
1429;DHT22;708;51.442;7.016;2022-09-09T08:01:51;35.50;62.70
1429;DHT22;708;51.442;7.016;2022-09-09T08:04:20;35.20;61.20
1429;DHT22;708;51.442;7.016;2022-09-09T08:06:49;34.10;62.70
1429;DHT22;708;51.442;7.016;2022-09-09T08:09:18;32.90;65.80
1429;DHT22;708;51.442;7.016;2022-09-09T08:12:18;31.90;68.20
1429;DHT22;708;51.442;7.016;2022-09-09T08:14:51;31.10;71.90
1429;DHT22;708;51.442;7.016;2022-09-09T08:17:21;31.20;72.90
1429;DHT22;708;51.442;7.016;2022-09-09T08:19:54;31.10;73.00
1429;DHT22;708;51.442;7.016;2022-09-09T08:22:22;30.60;74.50
1429;DHT22;708;51.442;7.016;2022-09-09T08:24:53;29.80;77.20
1429;DHT22;708;51.442;7.016;2022-09-09T08:27:20;28.80;82.50
1429;DHT22;708;51.442;7.016;2022-09-09T08:29:51;28.40;87.70
1429;DHT22;708;51.442;7.016;2022-09-09T08:32:28;28.60;89.00
1429;DHT22;708;51.442;7.016;2022-09-09T08:34:56;29.10;85.00
1429;DHT22;708;51.442;7.016;2022-09-09T08:37:23;29.20;85.30
1429;DHT22;708;51.442;7.016;2022-09-09T08:39:50;29.10;83.60
1429;DHT22;708;51.442;7.016;2022-09-09T08:42:41;28.80;86.60
1429;DHT22;708;51.442;7.016;2022-09-09T08:45:28;28.20;89.40
1429;DHT22;708;51.442;7.016;2022-09-09T08:48:11;27.80;90.70
1429;DHT22;708;51.442;7.016;2022-09-09T08:50:41;27.50;90.80
1429;DHT22;708;51.442;7.016;2022-09-09T08:53:13;27.20;92.30
1429;DHT22;708;51.442;7.016;2022-09-09T08:55:48;27.60;90.90
1429;DHT22;708;51.442;7.016;2022-09-09T08:58:17;27.50;90.20
1429;DHT22;708;51.442;7.016;2022-09-09T09:01:17;27.10;90.60
1429;DHT22;708;51.442;7.016;2022-09-09T09:03:53;27.10;91.70
1429;DHT22;708;51.442;7.016;2022-09-09T09:06:34;28.10;88.00
1429;DHT22;708;51.442;7.016;2022-09-09T09:09:10;29.50;82.90
1429;DHT22;708;51.442;7.016;2022-09-09T09:11:40;31.00;75.20
1429;DHT22;708;51.442;7.016;2022-09-09T09:14:11;31.80;70.00
1429;DHT22;708;51.442;7.016;2022-09-09T09:16:52;32.00;67.80
1429;DHT22;708;51.442;7.016;2022-09-09T09:19:19;32.10;66.10
1429;DHT22;708;51.442;7.016;2022-09-09T09:21:51;32.10;64.70
1429;DHT22;708;51.442;7.016;2022-09-09T09:24:23;31.70;65.30
1429;DHT22;708;51.442;7.016;2022-09-09T09:26:55;30.90;65.80
1429;DHT22;708;51.442;7.016;2022-09-09T09:29:24;30.10;67.30
1429;DHT22;708;51.442;7.016;2022-09-09T09:31:55;29.30;68.60
1429;DHT22;708;51.442;7.016;2022-09-09T09:34:22;28.40;71.80
1429;DHT22;708;51.442;7.016;2022-09-09T09:36:54;27.90;74.90
1429;DHT22;708;51.442;7.016;2022-09-09T09:39:27;27.50;77.30
1429;DHT22;708;51.442;7.016;2022-09-09T09:41:54;27.30;79.50
1429;DHT22;708;51.442;7.016;2022-09-09T09:44:24;27.30;80.70
1429;DHT22;708;51.442;7.016;2022-09-09T09:46:53;26.80;81.90
1429;DHT22;708;51.442;7.016;2022-09-09T09:49:20;26.70;83.80
1429;DHT22;708;51.442;7.016;2022-09-09T09:51:47;26.40;84.80
1429;DHT22;708;51.442;7.016;2022-09-09T09:54:22;26.20;85.80
1429;DHT22;708;51.442;7.016;2022-09-09T09:56:49;26.00;87.90
1429;DHT22;708;51.442;7.016;2022-09-09T09:59:24;25.90;89.70
1429;DHT22;708;51.442;7.016;2022-09-09T10:02:20;25.50;92.30
1429;DHT22;708;51.442;7.016;2022-09-09T10:05:01;25.20;94.10
1429;DHT22;708;51.442;7.016;2022-09-09T10:07:30;24.90;95.00
1429;DHT22;708;51.442;7.016;2022-09-09T10:09:59;24.80;95.90
1429;DHT22;708;51.442;7.016;2022-09-09T10:12:40;24.60;97.50
1429;DHT22;708;51.442;7.016;2022-09-09T10:15:26;24.40;98.00
1429;DHT22;708;51.442;7.016;2022-09-09T10:18:08;24.20;98.40
1429;DHT22;708;51.442;7.016;2022-09-09T10:20:45;23.90;98.90
1429;DHT22;708;51.442;7.016;2022-09-09T10:23:26;24.10;99.20
1429;DHT22;708;51.442;7.016;2022-09-09T10:26:07;24.40;98.70
1429;DHT22;708;51.442;7.016;2022-09-09T10:32:00;24.30;97.40
1429;DHT22;708;51.442;7.016;2022-09-09T10:34:49;24.20;97.90
1429;DHT22;708;51.442;7.016;2022-09-09T10:37:43;24.00;98.90
1429;DHT22;708;51.442;7.016;2022-09-09T10:40:33;23.80;98.00
1429;DHT22;708;51.442;7.016;2022-09-09T10:43:23;24.00;96.90
1429;DHT22;708;51.442;7.016;2022-09-09T10:46:03;24.10;96.70
1429;DHT22;708;51.442;7.016;2022-09-09T10:48:44;24.30;96.20
1429;DHT22;708;51.442;7.016;2022-09-09T10:51:23;24.60;96.40
1429;DHT22;708;51.442;7.016;2022-09-09T10:54:03;24.90;95.80
1429;DHT22;708;51.442;7.016;2022-09-09T10:56:33;25.40;94.70
1429;DHT22;708;51.442;7.016;2022-09-09T10:59:06;25.50;93.70
1429;DHT22;708;51.442;7.016;2022-09-09T11:01:37;25.40;92.80
1429;DHT22;708;51.442;7.016;2022-09-09T11:04:13;25.10;93.50
1429;DHT22;708;51.442;7.016;2022-09-09T11:06:59;24.70;94.50
1429;DHT22;708;51.442;7.016;2022-09-09T11:09:33;24.50;95.50
1429;DHT22;708;51.442;7.016;2022-09-09T11:12:02;24.20;97.10
1429;DHT22;708;51.442;7.016;2022-09-09T11:14:34;24.10;97.70
1429;DHT22;708;51.442;7.016;2022-09-09T11:17:08;23.90;98.20
1429;DHT22;708;51.442;7.016;2022-09-09T11:19:39;23.80;99.60
1429;DHT22;708;51.442;7.016;2022-09-09T11:22:15;23.50;99.90
1429;DHT22;708;51.442;7.016;2022-09-09T11:24:47;23.40;99.90
1429;DHT22;708;51.442;7.016;2022-09-09T11:27:18;23.70;99.90
1429;DHT22;708;51.442;7.016;2022-09-09T11:30:10;24.20;99.90
1429;DHT22;708;51.442;7.016;2022-09-09T11:32:58;24.60;99.20
1429;DHT22;708;51.442;7.016;2022-09-09T11:35:37;25.00;96.30
1429;DHT22;708;51.442;7.016;2022-09-09T11:38:28;25.10;96.10
1429;DHT22;708;51.442;7.016;2022-09-09T11:40:58;24.90;96.10
1429;DHT22;708;51.442;7.016;2022-09-09T11:43:29;25.10;96.60
1429;DHT22;708;51.442;7.016;2022-09-09T11:45:59;25.20;96.20
1429;DHT22;708;51.442;7.016;2022-09-09T11:48:34;25.50;95.30
1429;DHT22;708;51.442;7.016;2022-09-09T11:51:04;25.60;94.40
1429;DHT22;708;51.442;7.016;2022-09-09T11:53:34;25.50;94.30
1429;DHT22;708;51.442;7.016;2022-09-09T11:56:11;25.40;95.30
1429;DHT22;708;51.442;7.016;2022-09-09T11:58:41;25.00;99.90
1429;DHT22;708;51.442;7.016;2022-09-09T12:01:39;24.50;99.90
1429;DHT22;708;51.442;7.016;2022-09-09T12:04:27;23.80;99.90
1429;DHT22;708;51.442;7.016;2022-09-09T12:06:58;23.60;99.90
1429;DHT22;708;51.442;7.016;2022-09-09T12:09:36;23.50;99.90
1429;DHT22;708;51.442;7.016;2022-09-09T12:12:20;23.60;99.90
1429;DHT22;708;51.442;7.016;2022-09-09T12:17:42;24.00;99.90
1429;DHT22;708;51.442;7.016;2022-09-09T12:20:13;24.40;99.90
1429;DHT22;708;51.442;7.016;2022-09-09T12:22:55;24.50;99.90
1429;DHT22;708;51.442;7.016;2022-09-09T12:25:36;24.50;99.90
1429;DHT22;708;51.442;7.016;2022-09-09T12:28:12;24.40;99.90
1429;DHT22;708;51.442;7.016;2022-09-09T12:31:05;24.40;99.90
1429;DHT22;708;51.442;7.016;2022-09-09T12:33:45;24.40;99.90
1429;DHT22;708;51.442;7.016;2022-09-09T12:39:10;24.50;99.90
1429;DHT22;708;51.442;7.016;2022-09-09T12:40:17;24.40;99.90
1429;DHT22;708;51.442;7.016;2022-09-09T12:42:58;24.20;99.90
1429;DHT22;708;51.442;7.016;2022-09-09T12:45:32;23.90;99.90
1429;DHT22;708;51.442;7.016;2022-09-09T12:48:07;23.80;99.90
1429;DHT22;708;51.442;7.016;2022-09-09T12:53:08;23.80;99.90
1429;DHT22;708;51.442;7.016;2022-09-09T12:54:14;23.80;99.90
1429;DHT22;708;51.442;7.016;2022-09-09T12:56:49;23.60;99.90
1429;DHT22;708;51.442;7.016;2022-09-09T12:59:35;23.50;99.90
1429;DHT22;708;51.442;7.016;2022-09-09T13:02:27;23.40;99.90
1429;DHT22;708;51.442;7.016;2022-09-09T13:05:06;23.50;99.90
1429;DHT22;708;51.442;7.016;2022-09-09T13:08:02;23.50;99.90
1429;DHT22;708;51.442;7.016;2022-09-09T13:13:53;23.10;99.90
1429;DHT22;708;51.442;7.016;2022-09-09T13:16:25;23.00;99.90
1429;DHT22;708;51.442;7.016;2022-09-09T13:19:07;22.90;99.90
1429;DHT22;708;51.442;7.016;2022-09-09T13:21:36;22.80;99.90
1429;DHT22;708;51.442;7.016;2022-09-09T13:24:04;22.80;99.90
1429;DHT22;708;51.442;7.016;2022-09-09T13:26:58;22.60;99.90
1429;DHT22;708;51.442;7.016;2022-09-09T13:29:29;22.50;99.90
1429;DHT22;708;51.442;7.016;2022-09-09T13:32:15;22.40;99.90
1429;DHT22;708;51.442;7.016;2022-09-09T13:38:32;22.50;99.90
1429;DHT22;708;51.442;7.016;2022-09-09T13:44:28;22.80;99.90
1429;DHT22;708;51.442;7.016;2022-09-09T13:47:05;22.80;99.90
1429;DHT22;708;51.442;7.016;2022-09-09T13:49:32;22.70;99.90
1429;DHT22;708;51.442;7.016;2022-09-09T13:52:10;22.60;99.90
1429;DHT22;708;51.442;7.016;2022-09-09T13:54:39;22.30;99.90
1429;DHT22;708;51.442;7.016;2022-09-09T13:57:15;22.40;99.90
1429;DHT22;708;51.442;7.016;2022-09-09T13:59:59;22.50;99.90
1429;DHT22;708;51.442;7.016;2022-09-09T14:02:49;22.70;99.90
1429;DHT22;708;51.442;7.016;2022-09-09T14:05:24;22.90;99.90
1429;DHT22;708;51.442;7.016;2022-09-09T14:07:53;23.10;99.90
1429;DHT22;708;51.442;7.016;2022-09-09T14:10:23;23.10;99.90
1429;DHT22;708;51.442;7.016;2022-09-09T14:13:04;23.10;99.90
1429;DHT22;708;51.442;7.016;2022-09-09T14:15:31;23.10;99.90
1429;DHT22;708;51.442;7.016;2022-09-09T14:18:19;23.10;99.90
1429;DHT22;708;51.442;7.016;2022-09-09T14:23:52;23.10;99.90
1429;DHT22;708;51.442;7.016;2022-09-09T14:27:08;23.10;99.90
1429;DHT22;708;51.442;7.016;2022-09-09T14:29:28;23.00;99.90
1429;DHT22;708;51.442;7.016;2022-09-09T14:31:56;23.10;99.90
1429;DHT22;708;51.442;7.016;2022-09-09T14:34:27;23.00;99.90
1429;DHT22;708;51.442;7.016;2022-09-09T14:36:54;22.80;99.90
1429;DHT22;708;51.442;7.016;2022-09-09T14:39:21;22.80;99.90
1429;DHT22;708;51.442;7.016;2022-09-09T14:41:48;22.80;99.90
1429;DHT22;708;51.442;7.016;2022-09-09T14:44:15;22.80;99.90
1429;DHT22;708;51.442;7.016;2022-09-09T14:46:41;23.00;99.90
1429;DHT22;708;51.442;7.016;2022-09-09T14:49:08;23.30;99.90
1429;DHT22;708;51.442;7.016;2022-09-09T14:51:37;23.60;99.90
1429;DHT22;708;51.442;7.016;2022-09-09T14:54:04;23.60;99.90
1429;DHT22;708;51.442;7.016;2022-09-09T14:56:32;23.50;99.90
1429;DHT22;708;51.442;7.016;2022-09-09T14:59:00;23.40;99.90
1429;DHT22;708;51.442;7.016;2022-09-09T15:01:29;23.30;99.90
1429;DHT22;708;51.442;7.016;2022-09-09T15:03:57;22.80;99.90
1429;DHT22;708;51.442;7.016;2022-09-09T15:06:26;21.90;99.90
1429;DHT22;708;51.442;7.016;2022-09-09T15:08:54;21.20;99.90
1429;DHT22;708;51.442;7.016;2022-09-09T15:11:23;20.50;99.90
1429;DHT22;708;51.442;7.016;2022-09-09T15:13:53;20.10;99.90
1429;DHT22;708;51.442;7.016;2022-09-09T15:16:23;19.70;99.90
1429;DHT22;708;51.442;7.016;2022-09-09T15:18:52;19.50;99.90
1429;DHT22;708;51.442;7.016;2022-09-09T15:21:21;19.40;99.90
1429;DHT22;708;51.442;7.016;2022-09-09T15:24:11;19.30;99.90
1429;DHT22;708;51.442;7.016;2022-09-09T15:26:39;19.20;99.90
1429;DHT22;708;51.442;7.016;2022-09-09T15:29:24;19.20;99.90
1429;DHT22;708;51.442;7.016;2022-09-09T15:31:53;19.30;99.90
1429;DHT22;708;51.442;7.016;2022-09-09T15:34:20;19.40;99.90
1429;DHT22;708;51.442;7.016;2022-09-09T15:36:47;19.40;1.00
1429;DHT22;708;51.442;7.016;2022-09-09T15:39:31;19.50;1.00
1429;DHT22;708;51.442;7.016;2022-09-09T15:41:57;19.50;1.00
1429;DHT22;708;51.442;7.016;2022-09-09T15:44:28;19.50;1.00
1429;DHT22;708;51.442;7.016;2022-09-09T15:46:55;19.50;1.00
1429;DHT22;708;51.442;7.016;2022-09-09T15:49:23;19.50;1.00
1429;DHT22;708;51.442;7.016;2022-09-09T15:51:52;19.40;1.00
1429;DHT22;708;51.442;7.016;2022-09-09T15:54:21;19.40;1.00
1429;DHT22;708;51.442;7.016;2022-09-09T15:56:53;19.30;1.00
1429;DHT22;708;51.442;7.016;2022-09-09T15:59:21;19.40;1.00
1429;DHT22;708;51.442;7.016;2022-09-09T16:01:51;19.40;1.00
1429;DHT22;708;51.442;7.016;2022-09-09T16:04:19;19.60;1.00
1429;DHT22;708;51.442;7.016;2022-09-09T16:06:49;19.70;1.00
1429;DHT22;708;51.442;7.016;2022-09-09T16:09:17;19.80;1.00
1429;DHT22;708;51.442;7.016;2022-09-09T16:11:44;19.90;99.90
1429;DHT22;708;51.442;7.016;2022-09-09T16:14:14;20.00;99.90
1429;DHT22;708;51.442;7.016;2022-09-09T16:16:42;20.10;99.90
1429;DHT22;708;51.442;7.016;2022-09-09T16:19:11;20.10;99.90
1429;DHT22;708;51.442;7.016;2022-09-09T16:21:40;20.20;99.90
1429;DHT22;708;51.442;7.016;2022-09-09T16:24:09;20.30;99.90
1429;DHT22;708;51.442;7.016;2022-09-09T16:26:37;20.40;99.90
1429;DHT22;708;51.442;7.016;2022-09-09T16:29:05;20.50;99.90
1429;DHT22;708;51.442;7.016;2022-09-09T16:31:37;20.50;99.90
1429;DHT22;708;51.442;7.016;2022-09-09T16:34:05;20.50;99.90
1429;DHT22;708;51.442;7.016;2022-09-09T16:36:34;20.50;99.90
1429;DHT22;708;51.442;7.016;2022-09-09T16:39:11;20.50;99.90
1429;DHT22;708;51.442;7.016;2022-09-09T16:41:40;20.40;99.90
1429;DHT22;708;51.442;7.016;2022-09-09T16:44:08;20.30;99.90
1429;DHT22;708;51.442;7.016;2022-09-09T16:46:39;20.30;99.90
1429;DHT22;708;51.442;7.016;2022-09-09T16:49:08;20.30;99.90
1429;DHT22;708;51.442;7.016;2022-09-09T16:51:36;20.30;99.90
1429;DHT22;708;51.442;7.016;2022-09-09T16:54:06;20.30;99.90
1429;DHT22;708;51.442;7.016;2022-09-09T16:56:35;20.20;99.90
1429;DHT22;708;51.442;7.016;2022-09-09T16:59:05;20.20;99.90
1429;DHT22;708;51.442;7.016;2022-09-09T17:01:34;20.10;99.90
1429;DHT22;708;51.442;7.016;2022-09-09T17:04:05;20.00;99.90
1429;DHT22;708;51.442;7.016;2022-09-09T17:06:51;19.90;99.90
1429;DHT22;708;51.442;7.016;2022-09-09T17:09:19;19.90;99.90
1429;DHT22;708;51.442;7.016;2022-09-09T17:11:48;19.80;99.90
1429;DHT22;708;51.442;7.016;2022-09-09T17:14:18;19.80;99.90
1429;DHT22;708;51.442;7.016;2022-09-09T17:16:45;19.60;99.90
1429;DHT22;708;51.442;7.016;2022-09-09T17:19:14;19.60;99.90
1429;DHT22;708;51.442;7.016;2022-09-09T17:21:41;19.50;1.00
1429;DHT22;708;51.442;7.016;2022-09-09T17:24:08;19.40;1.00
1429;DHT22;708;51.442;7.016;2022-09-09T17:26:38;19.40;1.00
1429;DHT22;708;51.442;7.016;2022-09-09T17:29:05;19.20;1.00
1429;DHT22;708;51.442;7.016;2022-09-09T17:31:32;19.20;1.00
1429;DHT22;708;51.442;7.016;2022-09-09T17:34:00;19.10;1.00
1429;DHT22;708;51.442;7.016;2022-09-09T17:36:30;19.00;1.00
1429;DHT22;708;51.442;7.016;2022-09-09T17:38:58;18.90;1.00
1429;DHT22;708;51.442;7.016;2022-09-09T17:41:27;18.90;1.00
1429;DHT22;708;51.442;7.016;2022-09-09T17:43:55;18.80;1.00
1429;DHT22;708;51.442;7.016;2022-09-09T17:46:26;18.80;1.00
1429;DHT22;708;51.442;7.016;2022-09-09T17:48:55;18.80;1.00
1429;DHT22;708;51.442;7.016;2022-09-09T17:51:24;18.80;1.00
1429;DHT22;708;51.442;7.016;2022-09-09T17:53:56;18.80;1.00
1429;DHT22;708;51.442;7.016;2022-09-09T17:56:24;18.80;1.00
1429;DHT22;708;51.442;7.016;2022-09-09T17:58:52;18.80;1.00
1429;DHT22;708;51.442;7.016;2022-09-09T18:01:21;18.80;1.00
1429;DHT22;708;51.442;7.016;2022-09-09T18:03:50;18.80;1.00
1429;DHT22;708;51.442;7.016;2022-09-09T18:06:18;18.80;1.00
1429;DHT22;708;51.442;7.016;2022-09-09T18:08:48;18.80;1.00